Time;durP1;ratioP1;P1;durP2;ratioP2;P2;SDS_P1;SDS_P2;PMS_P1;PMS_P2;Temp;Humidity;BMP_temperature;BMP_pressure;BME280_temperature;BME280_humidity;BME280_pressure;Samples;Min_cycle;Max_cycle;Signal;HPM_P1;HPM_P2
2022/05/16 00:00:02;;;;;;;0.22;0.20;;;12.10;99.90;;;;;;5060733;28;20047;-85
2022/05/16 00:02:29;;;;;;;0.22;0.22;;;12.10;99.90;;;;;;5058080;28;20067;-85
2022/05/16 00:04:55;;;;;;;0.20;0.20;;;12.10;99.90;;;;;;5040728;28;20505;-85
2022/05/16 00:07:22;;;;;;;0.32;0.32;;;12.20;99.90;;;;;;5040268;28;20041;-86
2022/05/16 00:09:49;;;;;;;0.15;0.10;;;12.20;99.90;;;;;;5040274;28;20048;-86
2022/05/16 00:12:16;;;;;;;0.40;0.40;;;12.20;99.90;;;;;;5040673;28;20037;-86
2022/05/16 00:14:44;;;;;;;0.17;0.17;;;12.20;99.90;;;;;;5056820;28;20041;-87
2022/05/16 00:17:12;;;;;;;0.30;0.30;;;12.20;99.90;;;;;;5056649;28;20064;-85
2022/05/16 00:19:40;;;;;;;0.57;0.40;;;12.20;99.90;;;;;;5056339;28;20064;-84
2022/05/16 00:22:10;;;;;;;0.20;0.20;;;12.20;99.90;;;;;;5073096;28;20037;-86
2022/05/16 00:24:43;;;;;;;0.55;0.20;;;12.20;99.90;;;;;;5089281;28;20818;-86
2022/05/16 00:27:11;;;;;;;0.20;0.20;;;12.10;99.90;;;;;;5072389;28;20190;-85
2022/05/16 00:29:39;;;;;;;0.20;0.13;;;12.20;99.90;;;;;;5056384;28;20134;-86
2022/05/16 00:32:06;;;;;;;0.28;0.28;;;12.20;99.90;;;;;;5056697;28;20076;-87
2022/05/16 00:34:33;;;;;;;0.40;0.40;;;12.20;99.90;;;;;;5040156;28;20063;-86
2022/05/16 00:37:00;;;;;;;0.85;0.35;;;12.20;99.90;;;;;;5056479;28;20045;-84
2022/05/16 00:39:27;;;;;;;0.28;0.20;;;12.20;99.90;;;;;;5023884;28;20056;-86
2022/05/16 00:41:53;;;;;;;0.20;0.20;;;12.10;99.90;;;;;;5056449;28;20478;-86
2022/05/16 00:44:21;;;;;;;0.17;0.17;;;12.20;99.90;;;;;;5039723;28;20048;-86
2022/05/16 00:46:48;;;;;;;0.20;0.20;;;12.20;99.90;;;;;;5039615;28;20124;-85
2022/05/16 00:49:41;;;;;;;0.47;0.35;;;12.10;99.90;;;;;;5055809;28;20103;-86
2022/05/16 00:52:14;;;;;;;0.20;0.20;;;12.10;99.90;;;;;;5049064;28;20045;-85
2022/05/16 00:54:53;;;;;;;0.20;0.20;;;12.10;99.90;;;;;;5056325;28;20036;-85
2022/05/16 00:57:25;;;;;;;0.52;0.20;;;12.20;99.90;;;;;;5055080;28;20045;-85
2022/05/16 01:00:05;;;;;;;0.25;0.20;;;12.10;99.90;;;;;;5056029;28;20045;-86
2022/05/16 01:05:23;;;;;;;0.20;0.20;;;12.10;99.90;;;;;;5091915;28;20102;-86
2022/05/16 01:07:50;;;;;;;0.30;0.30;;;12.10;99.90;;;;;;5075251;28;20062;-85
2022/05/16 01:10:20;;;;;;;0.20;0.20;;;12.10;99.90;;;;;;5059019;28;20125;-86
2022/05/16 01:12:49;;;;;;;0.20;0.20;;;12.00;99.90;;;;;;5075286;28;20036;-84
2022/05/16 01:15:28;;;;;;;0.20;0.20;;;12.00;99.90;;;;;;5092221;28;20045;-87
2022/05/16 01:17:55;;;;;;;0.25;0.25;;;12.00;99.90;;;;;;5075580;28;20048;-85
2022/05/16 01:20:23;;;;;;;0.10;0.10;;;12.00;99.90;;;;;;5058835;28;20047;-86
2022/05/16 01:22:52;;;;;;;0.20;0.20;;;12.00;99.90;;;;;;5075415;28;20048;-86
2022/05/16 01:25:23;;;;;;;0.20;0.20;;;12.00;99.90;;;;;;5075206;28;20062;-85
2022/05/16 01:27:59;;;;;;;0.10;0.10;;;12.00;99.90;;;;;;5074631;28;20443;-85
2022/05/16 01:30:27;;;;;;;;;;;12.00;99.90;;;;;;5075541;28;20098;-85
2022/05/16 01:32:54;;;;;;;0.10;0.10;;;12.00;99.90;;;;;;5074891;28;20372;-85
2022/05/16 01:35:27;;;;;;;0.20;0.20;;;11.90;99.90;;;;;;5074683;28;20087;-85
2022/05/16 01:40:39;;;;;;;0.20;0.20;;;11.90;99.90;;;;;;5087310;28;20048;-86
2022/05/16 01:43:07;;;;;;;0.20;0.20;;;11.80;99.90;;;;;;5058424;28;20063;-86
2022/05/16 01:45:34;;;;;;;0.10;0.10;;;11.80;99.90;;;;;;5058420;28;20036;-86
2022/05/16 01:48:00;;;;;;;0.10;0.10;;;11.80;99.90;;;;;;5063631;28;20041;-86
2022/05/16 01:50:27;;;;;;;0.28;0.28;;;11.90;99.90;;;;;;5058140;28;20036;-85
2022/05/16 01:52:54;;;;;;;0.28;0.20;;;11.80;99.90;;;;;;5051477;28;20048;-85
2022/05/16 01:55:21;;;;;;;0.30;0.20;;;11.80;99.90;;;;;;5021977;28;20059;-85
2022/05/16 01:57:47;;;;;;;2.75;0.60;;;11.80;99.90;;;;;;5022071;28;20123;-86
2022/05/16 02:00:16;;;;;;;0.10;0.10;;;11.70;99.90;;;;;;5025286;28;20121;-86
2022/05/16 02:02:44;;;;;;;0.20;0.20;;;11.70;99.90;;;;;;5090971;28;20072;-85
2022/05/16 02:05:19;;;;;;;0.20;0.20;;;11.70;99.90;;;;;;5074498;28;20613;-87
2022/05/16 02:07:46;;;;;;;0.10;0.10;;;11.70;99.90;;;;;;5091202;28;20083;-85
2022/05/16 02:10:18;;;;;;;0.10;0.10;;;11.60;99.90;;;;;;5073299;28;20079;-85
2022/05/16 02:12:45;;;;;;;0.10;0.10;;;11.60;99.90;;;;;;5073944;28;20041;-85
2022/05/16 02:15:16;;;;;;;0.20;0.20;;;11.70;99.90;;;;;;5091137;28;20080;-86
2022/05/16 02:17:43;;;;;;;0.30;0.30;;;11.60;99.90;;;;;;5074018;28;20056;-86
2022/05/16 02:20:10;;;;;;;0.47;0.22;;;11.60;99.90;;;;;;5058332;28;20044;-84
2022/05/16 02:25:22;;;;;;;0.10;0.10;;;11.50;99.90;;;;;;5087264;28;20410;-85
2022/05/16 02:27:50;;;;;;;0.15;0.15;;;11.50;99.90;;;;;;5057579;28;20055;-85
2022/05/16 02:30:20;;;;;;;0.10;0.10;;;11.50;99.90;;;;;;5058136;28;20040;-86
2022/05/16 02:32:48;;;;;;;0.17;0.17;;;11.60;99.90;;;;;;5074273;28;20089;-87
2022/05/16 02:35:15;;;;;;;0.13;0.13;;;11.50;99.90;;;;;;5057701;28;20036;-86
2022/05/16 02:37:42;;;;;;;0.10;0.10;;;11.50;99.90;;;;;;5074076;28;20521;-85
2022/05/16 02:40:10;;;;;;;0.52;0.40;;;11.50;99.90;;;;;;5074131;28;20052;-85
2022/05/16 02:42:36;;;;;;;0.10;0.10;;;11.50;99.90;;;;;;5057363;28;20044;-86
2022/05/16 02:45:04;;;;;;;0.13;0.10;;;11.50;99.90;;;;;;5057040;28;20044;-84
2022/05/16 02:47:31;;;;;;;0.10;0.10;;;11.50;99.90;;;;;;5057728;28;20082;-86
2022/05/16 02:50:03;;;;;;;0.25;0.20;;;11.50;99.90;;;;;;5073572;28;20036;-86
2022/05/16 02:52:30;;;;;;;0.10;0.10;;;11.40;99.90;;;;;;5053761;28;20065;-85
2022/05/16 02:55:00;;;;;;;0.20;0.20;;;11.40;99.90;;;;;;5037347;28;20521;-86
2022/05/16 02:57:29;;;;;;;0.20;0.20;;;11.40;99.90;;;;;;5038179;28;20037;-85
2022/05/16 02:59:56;;;;;;;0.20;0.20;;;11.40;99.90;;;;;;5053230;28;20036;-86
2022/05/16 03:02:23;;;;;;;0.13;0.13;;;11.40;99.90;;;;;;5037402;28;20044;-86
2022/05/16 03:04:50;;;;;;;0.20;0.20;;;11.30;99.90;;;;;;5053431;28;20037;-86
2022/05/16 03:07:17;;;;;;;0.10;0.10;;;11.40;99.90;;;;;;5053381;28;20551;-86
2022/05/16 03:09:44;;;;;;;0.20;0.20;;;11.30;99.90;;;;;;5037121;28;20045;-86
2022/05/16 03:12:11;;;;;;;0.00;0.00;;;11.30;99.90;;;;;;5036996;28;20037;-86
2022/05/16 03:14:37;;;;;;;0.25;0.13;;;11.30;99.90;;;;;;5036891;28;20071;-85
2022/05/16 03:17:04;;;;;;;0.25;0.25;;;11.30;99.90;;;;;;5077362;28;20045;-85
2022/05/16 03:19:31;;;;;;;0.10;0.10;;;11.30;99.90;;;;;;5089615;28;20048;-85
2022/05/16 03:21:58;;;;;;;0.20;0.20;;;11.30;99.90;;;;;;5056595;28;20036;-86
2022/05/16 03:24:25;;;;;;;0.15;0.15;;;11.30;99.90;;;;;;5040428;28;20045;-85
2022/05/16 03:26:51;;;;;;;0.10;0.10;;;11.30;99.90;;;;;;5021484;28;20096;-86
2022/05/16 03:29:18;;;;;;;0.10;0.10;;;11.30;99.90;;;;;;5017465;28;20041;-86
2022/05/16 03:31:45;;;;;;;0.10;0.10;;;11.30;99.90;;;;;;5050092;28;20045;-85
2022/05/16 03:34:12;;;;;;;0.25;0.25;;;11.30;99.90;;;;;;5033759;28;20132;-85
2022/05/16 03:36:39;;;;;;;0.10;0.10;;;11.30;99.90;;;;;;5049477;28;20104;-86
2022/05/16 03:41:52;;;;;;;0.20;0.20;;;11.30;99.90;;;;;;5069341;28;20268;-85
2022/05/16 03:44:20;;;;;;;0.10;0.10;;;11.30;99.90;;;;;;5036685;28;20087;-86
2022/05/16 03:46:47;;;;;;;0.10;0.10;;;11.30;99.90;;;;;;5069024;28;20041;-86
2022/05/16 03:49:14;;;;;;;0.20;0.20;;;11.30;99.90;;;;;;5036676;28;20513;-85
2022/05/16 03:51:41;;;;;;;0.20;0.20;;;11.30;99.90;;;;;;5052687;28;20674;-85
2022/05/16 03:54:08;;;;;;;0.20;0.13;;;11.40;99.90;;;;;;5052723;28;20060;-84
2022/05/16 03:56:35;;;;;;;0.10;0.10;;;11.30;99.90;;;;;;5036247;28;20041;-85
2022/05/16 03:59:03;;;;;;;0.10;0.10;;;11.40;99.90;;;;;;5036306;28;20179;-86
2022/05/16 04:01:30;;;;;;;0.30;0.20;;;11.30;99.90;;;;;;5052814;28;20037;-85
2022/05/16 04:03:57;;;;;;;0.10;0.10;;;11.40;99.90;;;;;;5036453;28;20055;-85
2022/05/16 04:06:24;;;;;;;0.20;0.20;;;11.40;99.90;;;;;;5036246;28;20497;-84
2022/05/16 04:08:51;;;;;;;0.10;0.10;;;11.40;99.90;;;;;;5036807;28;20044;-86
2022/05/16 04:11:18;;;;;;;0.13;0.13;;;11.40;99.90;;;;;;5019929;28;20068;-85
2022/05/16 04:13:45;;;;;;;0.32;0.20;;;11.40;99.90;;;;;;5053269;28;20036;-86
2022/05/16 04:16:12;;;;;;;0.15;0.15;;;11.40;99.90;;;;;;5052759;28;20049;-86
2022/05/16 04:18:41;;;;;;;0.10;0.10;;;11.50;99.90;;;;;;5052750;28;20041;-85
2022/05/16 04:21:08;;;;;;;0.20;0.20;;;11.50;99.90;;;;;;5052094;28;20067;-87
2022/05/16 04:23:35;;;;;;;0.10;0.10;;;11.50;99.90;;;;;;5036628;28;20041;-86
2022/05/16 04:26:02;;;;;;;0.20;0.20;;;11.60;99.90;;;;;;5040833;28;20059;-85
2022/05/16 04:28:28;;;;;;;0.10;0.10;;;11.60;99.90;;;;;;5052653;28;20032;-85
2022/05/16 04:30:55;;;;;;;0.22;0.22;;;11.60;99.90;;;;;;5052514;28;20039;-85
2022/05/16 04:33:22;;;;;;;0.20;0.20;;;11.70;99.90;;;;;;5054127;28;20037;-86
2022/05/16 04:35:49;;;;;;;0.20;0.20;;;11.70;99.90;;;;;;5056200;28;20041;-86
2022/05/16 04:38:15;;;;;;;0.10;0.10;;;11.80;99.90;;;;;;5056352;28;20040;-86
2022/05/16 04:43:28;;;;;;;0.10;0.10;;;11.90;99.90;;;;;;5044910;28;20048;-86
2022/05/16 04:45:54;;;;;;;0.10;0.10;;;11.90;99.90;;;;;;5047998;28;20047;-85
2022/05/16 04:48:21;;;;;;;0.10;0.10;;;12.00;99.90;;;;;;5043138;28;20044;-86
2022/05/16 04:50:48;;;;;;;0.10;0.10;;;12.10;99.90;;;;;;5059521;28;20485;-86
2022/05/16 04:53:14;;;;;;;0.20;0.20;;;12.20;99.90;;;;;;5075451;28;20134;-86
2022/05/16 04:55:41;;;;;;;0.10;0.10;;;12.20;99.90;;;;;;5059363;28;20040;-86
2022/05/16 04:58:09;;;;;;;0.10;0.10;;;12.30;99.90;;;;;;5059057;28;20519;-85
2022/05/16 05:00:35;;;;;;;0.10;0.10;;;12.40;99.90;;;;;;5059110;28;20979;-85
2022/05/16 05:03:02;;;;;;;0.30;0.30;;;12.40;99.90;;;;;;5075809;28;20048;-85
2022/05/16 05:05:29;;;;;;;0.00;0.00;;;12.40;99.90;;;;;;5044467;28;20051;-86
2022/05/16 05:07:56;;;;;;;0.10;0.10;;;12.60;99.90;;;;;;5091614;28;20508;-85
2022/05/16 05:16:07;;;;;;;0.20;0.20;;;12.60;99.90;;;;;;5077443;28;20045;-85
2022/05/16 05:18:34;;;;;;;0.13;0.13;;;12.70;99.90;;;;;;5075168;28;20044;-86
2022/05/16 05:21:01;;;;;;;0.17;0.13;;;12.70;99.90;;;;;;5058907;28;20060;-86
2022/05/16 05:23:27;;;;;;;0.10;0.10;;;12.80;99.90;;;;;;5059029;28;20044;-86
2022/05/16 05:25:57;;;;;;;0.13;0.13;;;12.80;99.90;;;;;;5058876;28;20053;-85
2022/05/16 05:28:24;;;;;;;0.10;0.10;;;12.80;99.90;;;;;;5074824;28;20482;-85
2022/05/16 05:30:51;;;;;;;0.00;0.00;;;12.80;99.90;;;;;;5058698;28;20044;-86
2022/05/16 05:33:17;;;;;;;0.17;0.17;;;12.90;99.90;;;;;;5058709;28;20394;-85
2022/05/16 05:35:44;;;;;;;0.20;0.20;;;12.90;99.90;;;;;;5058853;28;20504;-85
2022/05/16 05:38:11;;;;;;;0.30;0.20;;;12.90;99.90;;;;;;5062240;28;20040;-85
2022/05/16 05:40:37;;;;;;;0.40;0.30;;;13.00;99.90;;;;;;5058151;28;20094;-86
2022/05/16 05:43:06;;;;;;;0.17;0.17;;;13.00;99.90;;;;;;5074969;28;20052;-85
2022/05/16 05:45:34;;;;;;;0.10;0.10;;;13.00;99.90;;;;;;5054433;28;20052;-85
2022/05/16 05:48:01;;;;;;;0.10;0.10;;;13.10;99.90;;;;;;5054553;28;20037;-85
2022/05/16 05:50:31;;;;;;;0.10;0.10;;;13.10;99.90;;;;;;5038563;28;20029;-85
2022/05/16 05:52:59;;;;;;;0.10;0.10;;;13.20;99.90;;;;;;5038394;28;20033;-86
2022/05/16 05:55:25;;;;;;;0.28;0.20;;;13.30;99.90;;;;;;5038380;28;20493;-85
2022/05/16 05:57:53;;;;;;;0.30;0.20;;;13.40;99.90;;;;;;5054450;28;20129;-85
2022/05/16 06:00:20;;;;;;;0.28;0.28;;;13.40;99.90;;;;;;5054240;28;20047;-86
2022/05/16 06:02:47;;;;;;;1.15;0.55;;;13.40;99.90;;;;;;5038094;28;20080;-85
2022/05/16 06:05:18;;;;;;;0.28;0.17;;;13.40;99.90;;;;;;5054890;28;20047;-85
2022/05/16 06:07:44;;;;;;;0.20;0.20;;;13.50;99.90;;;;;;5073351;28;20033;-85
2022/05/16 06:10:11;;;;;;;0.73;0.35;;;13.50;99.90;;;;;;5072393;28;20044;-86
2022/05/16 06:12:39;;;;;;;0.47;0.22;;;13.60;99.90;;;;;;5058020;28;20047;-84
2022/05/16 06:15:08;;;;;;;0.17;0.17;;;13.70;99.90;;;;;;5057924;28;20033;-85
2022/05/16 06:17:35;;;;;;;0.35;0.20;;;13.70;99.90;;;;;;5074701;28;20063;-85
2022/05/16 06:20:08;;;;;;;0.20;0.20;;;13.90;99.90;;;;;;5057783;28;20048;-85
2022/05/16 06:22:34;;;;;;;0.40;0.20;;;13.90;99.90;;;;;;5074559;28;20036;-85
2022/05/16 06:27:49;;;;;;;0.40;0.38;;;14.10;99.90;;;;;;5070361;28;20498;-88
2022/05/16 06:30:19;;;;;;;0.10;0.10;;;14.20;99.90;;;;;;5040685;28;20032;-88
2022/05/16 06:32:46;;;;;;;0.65;0.30;;;14.30;99.90;;;;;;5056607;28;20146;-87
2022/05/16 06:35:13;;;;;;;0.55;0.30;;;14.50;99.90;;;;;;5062518;28;20119;-85
2022/05/16 06:37:40;;;;;;;0.28;0.28;;;14.60;99.90;;;;;;5057615;28;20135;-88
2022/05/16 06:40:11;;;;;;;0.00;0.00;;;14.70;99.90;;;;;;5062755;28;20052;-87
2022/05/16 06:42:37;;;;;;;0.17;0.17;;;14.80;99.90;;;;;;5053621;28;20035;-85
2022/05/16 06:45:06;;;;;;;0.25;0.20;;;14.80;99.90;;;;;;5037601;28;20037;-85
2022/05/16 06:47:33;;;;;;;2.05;0.52;;;14.90;99.90;;;;;;5038366;28;20037;-88
2022/05/16 06:49:59;;;;;;;0.22;0.22;;;14.90;99.90;;;;;;5038332;28;20398;-87
2022/05/16 06:52:26;;;;;;;0.30;0.20;;;15.00;99.90;;;;;;5054045;28;20037;-84
2022/05/16 06:54:53;;;;;;;1.27;0.28;;;15.00;99.90;;;;;;5021275;28;20465;-88
2022/05/16 06:57:20;;;;;;;0.20;0.20;;;15.10;99.90;;;;;;5043538;28;20614;-87
2022/05/16 06:59:46;;;;;;;0.20;0.20;;;15.20;99.90;;;;;;5073533;28;20110;-86
2022/05/16 07:02:16;;;;;;;0.20;0.20;;;15.20;99.90;;;;;;5061201;28;20123;-87
2022/05/16 07:04:43;;;;;;;0.30;0.30;;;15.30;99.90;;;;;;5051587;28;20472;-87
2022/05/16 07:07:10;;;;;;;0.03;0.03;;;15.30;99.90;;;;;;5066938;28;20037;-87
2022/05/16 07:09:40;;;;;;;0.22;0.20;;;15.50;99.90;;;;;;5070101;28;20071;-87
2022/05/16 07:12:08;;;;;;;0.35;0.28;;;15.60;99.90;;;;;;5063027;28;20119;-88
2022/05/16 07:14:38;;;;;;;0.38;0.35;;;15.80;99.90;;;;;;5039722;28;20043;-86
2022/05/16 07:17:06;;;;;;;0.30;0.30;;;15.90;99.90;;;;;;5057523;28;20059;-87
2022/05/16 07:19:36;;;;;;;0.30;0.20;;;16.00;99.90;;;;;;5061671;28;20041;-86
2022/05/16 07:22:10;;;;;;;0.20;0.13;;;16.30;99.90;;;;;;5063842;28;20037;-87
2022/05/16 07:24:40;;;;;;;0.60;0.35;;;16.50;99.90;;;;;;5054724;28;20040;-87
2022/05/16 07:29:53;;;;;;;0.30;0.30;;;16.80;99.90;;;;;;5079245;28;20067;-85
2022/05/16 07:32:20;;;;;;;0.10;0.10;;;17.00;99.90;;;;;;5053077;28;20045;-84
2022/05/16 07:34:48;;;;;;;1.55;0.43;;;17.10;99.90;;;;;;5069834;28;20033;-87
2022/05/16 07:37:15;;;;;;;0.20;0.20;;;17.30;99.90;;;;;;5057910;28;20116;-85
2022/05/16 07:39:41;;;;;;;0.32;0.20;;;17.40;99.90;;;;;;5045202;28;20532;-85
2022/05/16 07:42:09;;;;;;;0.20;0.20;;;17.50;99.90;;;;;;5052455;28;20033;-88
2022/05/16 07:44:38;;;;;;;0.17;0.17;;;17.60;99.90;;;;;;5052055;28;20040;-86
2022/05/16 07:47:06;;;;;;;0.40;0.40;;;17.80;99.90;;;;;;5062123;28;20513;-86
2022/05/16 07:49:32;;;;;;;0.32;0.20;;;18.00;99.90;;;;;;5069286;28;20045;-84
2022/05/16 07:51:59;;;;;;;0.28;0.28;;;18.20;99.90;;;;;;5072201;28;20043;-84
2022/05/16 07:54:26;;;;;;;0.28;0.25;;;18.30;99.90;;;;;;5056541;28;20029;-85
2022/05/16 07:56:52;;;;;;;0.70;0.50;;;18.40;99.90;;;;;;5045203;28;20532;-84
2022/05/16 07:59:19;;;;;;;0.50;0.32;;;18.60;99.90;;;;;;5036280;28;20102;-87
2022/05/16 08:01:46;;;;;;;0.22;0.22;;;18.80;99.90;;;;;;5036972;28;20044;-87
2022/05/16 08:04:14;;;;;;;0.50;0.30;;;18.90;99.90;;;;;;5036514;28;20045;-84
2022/05/16 08:06:41;;;;;;;0.10;0.10;;;19.20;99.90;;;;;;5036598;28;20088;-87
2022/05/16 08:11:53;;;;;;;0.20;0.20;;;19.50;99.90;;;;;;5079225;28;20427;-87
2022/05/16 08:14:20;;;;;;;0.20;0.20;;;19.70;99.90;;;;;;5059729;28;20055;-87
2022/05/16 08:16:47;;;;;;;0.52;0.30;;;19.90;99.90;;;;;;5059899;28;20086;-84
2022/05/16 08:19:13;;;;;;;0.38;0.30;;;19.90;99.90;;;;;;5060050;28;20040;-86
2022/05/16 08:21:42;;;;;;;0.10;0.10;;;20.10;99.90;;;;;;5060102;28;20052;-84
2022/05/16 08:24:11;;;;;;;0.35;0.20;;;20.20;99.90;;;;;;5038485;28;20036;-86
2022/05/16 08:26:38;;;;;;;0.47;0.17;;;20.30;99.90;;;;;;5059278;28;20056;-86
2022/05/16 08:29:05;;;;;;;0.20;0.20;;;20.40;99.90;;;;;;5059503;28;20044;-83
2022/05/16 08:31:32;;;;;;;0.75;0.50;;;20.50;99.90;;;;;;5075895;28;20109;-83
2022/05/16 08:34:00;;;;;;;0.52;0.32;;;20.70;99.90;;;;;;5092250;28;20041;-88
2022/05/16 08:42:02;;;;;;;0.10;0.10;;;20.80;99.90;;;;;;5078587;28;20068;-87
2022/05/16 08:45:05;;;;;;;0.10;0.10;;;20.90;99.90;;;;;;5085288;28;20047;-85
2022/05/16 08:47:58;;;;;;;0.38;0.25;;;21.10;99.90;;;;;;5078753;28;20076;-87
2022/05/16 08:50:38;;;;;;;0.40;0.30;;;21.20;99.90;;;;;;5060824;28;20033;-87
2022/05/16 08:53:11;;;;;;;0.73;0.40;;;21.40;99.90;;;;;;5055657;28;20041;-85
2022/05/16 08:55:43;;;;;;;0.73;0.40;;;21.50;99.00;;;;;;5060976;28;20048;-85
2022/05/16 08:58:29;;;;;;;0.68;0.47;;;21.70;99.90;;;;;;5074453;28;20513;-86
2022/05/16 09:01:02;;;;;;;1.08;0.40;;;21.90;98.50;;;;;;5075525;28;20036;-86
2022/05/16 09:03:35;;;;;;;0.17;0.17;;;22.00;99.50;;;;;;5072125;28;20079;-86
2022/05/16 09:06:12;;;;;;;0.20;0.20;;;22.20;99.90;;;;;;5057928;28;20041;-86
2022/05/16 09:09:05;;;;;;;0.30;0.30;;;22.40;98.60;;;;;;5073361;28;20108;-85
2022/05/16 09:12:04;;;;;;;0.82;0.47;;;22.50;97.40;;;;;;5046627;28;20136;-86
2022/05/16 09:15:01;;;;;;;0.20;0.20;;;22.60;99.30;;;;;;5064785;28;20075;-86
2022/05/16 09:17:30;;;;;;;0.73;0.50;;;22.70;98.00;;;;;;5074814;28;20040;-86
2022/05/16 09:20:34;;;;;;;0.38;0.30;;;22.80;98.40;;;;;;5074814;28;20123;-86
2022/05/16 09:23:39;;;;;;;0.38;0.20;;;22.90;97.60;;;;;;5074065;28;20401;-85
2022/05/16 09:26:17;;;;;;;0.47;0.35;;;23.00;97.30;;;;;;5074654;28;20127;-85
2022/05/16 09:28:54;;;;;;;1.00;0.30;;;23.20;97.90;;;;;;5071223;28;20048;-86
2022/05/16 09:31:32;;;;;;;0.50;0.35;;;23.50;96.40;;;;;;5061049;28;20037;-87
2022/05/16 09:34:00;;;;;;;0.40;0.28;;;23.60;96.00;;;;;;5066500;28;20044;-86
2022/05/16 09:36:41;;;;;;;0.35;0.20;;;23.90;96.30;;;;;;5072057;28;20072;-85
2022/05/16 09:39:10;;;;;;;0.30;0.30;;;24.20;96.50;;;;;;5081765;28;20593;-87
2022/05/16 09:41:44;;;;;;;1.02;0.50;;;24.30;95.90;;;;;;5071498;28;20071;-86
2022/05/16 09:44:29;;;;;;;0.90;0.30;;;24.40;95.80;;;;;;5075552;28;20544;-87
2022/05/16 09:47:22;;;;;;;0.45;0.30;;;24.40;94.70;;;;;;5054789;28;20103;-86
2022/05/16 09:50:09;;;;;;;0.30;0.30;;;24.50;95.20;;;;;;5061626;28;20048;-85
2022/05/16 09:52:52;;;;;;;0.40;0.40;;;24.50;95.40;;;;;;5054661;28;20283;-87
2022/05/16 09:55:28;;;;;;;0.60;0.50;;;24.50;94.10;;;;;;5069242;28;20036;-86
2022/05/16 09:58:01;;;;;;;0.22;0.22;;;24.60;93.90;;;;;;5073699;28;20059;-85
2022/05/16 10:00:57;;;;;;;0.43;0.40;;;24.60;93.00;;;;;;5070592;28;20815;-85
2022/05/16 10:03:35;;;;;;;1.02;0.55;;;24.80;93.90;;;;;;5057650;28;20049;-86
2022/05/16 10:06:27;;;;;;;0.98;0.28;;;24.90;93.70;;;;;;5075359;28;20032;-86
2022/05/16 10:08:53;;;;;;;0.22;0.22;;;25.00;94.00;;;;;;5069839;28;20039;-85
2022/05/16 10:11:24;;;;;;;1.08;0.45;;;25.00;93.70;;;;;;5077497;28;20492;-85
2022/05/16 10:13:52;;;;;;;0.30;0.30;;;25.00;93.50;;;;;;5094513;28;20059;-86
2022/05/16 10:16:20;;;;;;;0.65;0.45;;;25.00;92.60;;;;;;5094645;28;20047;-86
2022/05/16 10:18:56;;;;;;;0.73;0.30;;;25.00;94.30;;;;;;5059701;28;20045;-85
2022/05/16 10:21:34;;;;;;;0.45;0.40;;;25.20;94.80;;;;;;5090850;28;20046;-86
2022/05/16 10:24:07;;;;;;;0.47;0.30;;;25.30;92.60;;;;;;5062049;28;20068;-85
2022/05/16 10:26:38;;;;;;;0.70;0.50;;;25.40;93.50;;;;;;5053364;28;20041;-85
2022/05/16 10:29:15;;;;;;;0.45;0.40;;;25.50;92.30;;;;;;5074748;28;20044;-88
2022/05/16 10:35:12;;;;;;;0.30;0.30;;;25.90;89.00;;;;;;5006054;28;20139;-85
2022/05/16 10:37:46;;;;;;;0.47;0.45;;;26.00;91.20;;;;;;4974178;28;20600;-86
2022/05/16 10:40:23;;;;;;;0.40;0.30;;;25.80;90.70;;;;;;5076040;28;20044;-86
2022/05/16 10:43:09;;;;;;;0.68;0.38;;;25.80;88.80;;;;;;5073005;28;20043;-84
2022/05/16 10:45:40;;;;;;;0.43;0.38;;;25.70;90.20;;;;;;5055188;28;20037;-87
2022/05/16 10:48:16;;;;;;;0.40;0.40;;;25.60;89.90;;;;;;5088934;28;20044;-87
2022/05/16 10:51:01;;;;;;;0.95;0.32;;;25.60;90.10;;;;;;5070950;28;20509;-84
2022/05/16 10:53:41;;;;;;;0.45;0.38;;;25.80;88.50;;;;;;5073215;28;20409;-88
2022/05/16 10:56:33;;;;;;;0.45;0.35;;;25.90;88.00;;;;;;5073006;28;20504;-85
2022/05/16 10:59:31;;;;;;;0.32;0.30;;;26.10;89.10;;;;;;5073280;28;20493;-89
2022/05/16 11:02:13;;;;;;;0.40;0.40;;;26.40;89.50;;;;;;5037499;28;20112;-88
2022/05/16 11:04:51;;;;;;;0.60;0.40;;;26.50;86.00;;;;;;5073705;28;20072;-85
2022/05/16 11:07:27;;;;;;;1.23;0.40;;;26.60;84.90;;;;;;5064204;28;20040;-86
2022/05/16 11:09:59;;;;;;;0.93;0.38;;;26.60;86.80;;;;;;5077955;28;20048;-86
2022/05/16 11:12:45;;;;;;;1.08;0.73;;;26.60;86.80;;;;;;5052814;28;20051;-86
2022/05/16 11:15:30;;;;;;;0.45;0.40;;;26.70;87.60;;;;;;5102212;28;20037;-85
2022/05/16 11:18:20;;;;;;;0.22;0.22;;;26.80;83.10;;;;;;5068085;28;20040;-86
2022/05/16 11:21:07;;;;;;;1.55;0.40;;;26.80;85.20;;;;;;5065265;28;20068;-87
2022/05/16 11:23:37;;;;;;;0.52;0.43;;;27.00;85.60;;;;;;5053330;28;20029;-85
2022/05/16 11:26:31;;;;;;;0.35;0.35;;;27.00;84.30;;;;;;5052640;28;20045;-86
2022/05/16 11:29:26;;;;;;;0.40;0.30;;;26.90;81.60;;;;;;5085572;28;20114;-85
2022/05/16 11:32:30;;;;;;;0.40;0.40;;;26.80;83.10;;;;;;5065298;28;20048;-85
2022/05/16 11:35:03;;;;;;;0.55;0.50;;;26.60;82.00;;;;;;5073957;28;20040;-85
2022/05/16 11:37:52;;;;;;;0.55;0.40;;;26.50;83.70;;;;;;5053843;28;20423;-86
2022/05/16 11:40:37;;;;;;;0.32;0.30;;;26.50;81.50;;;;;;5072932;28;20424;-88
2022/05/16 11:43:17;;;;;;;;;;;26.70;84.80;;;;;;5076340;28;20059;-87
2022/05/16 11:46:05;;;;;;;0.50;0.50;;;26.80;83.40;;;;;;5076226;28;20021;-87
2022/05/16 11:49:08;;;;;;;1.10;0.50;;;26.60;83.00;;;;;;5093414;28;20123;-86
2022/05/16 11:51:53;;;;;;;0.43;0.43;;;26.50;82.00;;;;;;5056948;28;20051;-86
2022/05/16 11:54:25;;;;;;;0.38;0.38;;;26.30;83.60;;;;;;5057580;28;20033;-86
2022/05/16 12:02:29;;;;;;;0.43;0.40;;;26.20;83.30;;;;;;5090072;28;20045;-86
2022/05/16 12:05:12;;;;;;;1.73;0.40;;;26.10;83.60;;;;;;5073241;28;20036;-87
2022/05/16 12:07:49;;;;;;;0.47;0.47;;;26.00;80.60;;;;;;5056332;28;20075;-86
2022/05/16 12:10:20;;;;;;;0.47;0.40;;;26.00;81.90;;;;;;5061939;28;20036;-87
2022/05/16 12:13:08;;;;;;;1.42;0.70;;;25.90;83.80;;;;;;5092724;28;20047;-85
2022/05/16 12:15:35;;;;;;;0.30;0.30;;;25.90;83.30;;;;;;5076451;28;20133;-86
2022/05/16 12:18:05;;;;;;;0.57;0.32;;;25.60;87.30;;;;;;5060101;28;20382;-86
2022/05/16 12:21:03;;;;;;;0.57;0.45;;;25.50;85.90;;;;;;5088901;28;20043;-85
2022/05/16 12:23:57;;;;;;;0.38;0.38;;;25.30;87.10;;;;;;5056548;28;20047;-89
2022/05/16 12:26:27;;;;;;;0.30;0.30;;;25.20;88.10;;;;;;5047810;28;20115;-85
2022/05/16 12:29:18;;;;;;;0.47;0.38;;;25.00;90.00;;;;;;5035947;28;20052;-89
2022/05/16 12:31:45;;;;;;;0.60;0.30;;;24.80;94.00;;;;;;5039954;28;20155;-84
2022/05/16 12:34:35;;;;;;;0.30;0.30;;;24.50;91.80;;;;;;5056229;28;20115;-85
2022/05/16 12:37:09;;;;;;;0.80;0.40;;;24.40;91.60;;;;;;5048556;28;20045;-89
2022/05/16 12:39:55;;;;;;;0.38;0.38;;;24.20;92.90;;;;;;5073938;28;20044;-85
2022/05/16 12:42:55;;;;;;;0.65;0.40;;;24.10;93.90;;;;;;5056511;28;20377;-94
2022/05/16 12:45:46;;;;;;;0.43;0.30;;;24.00;93.60;;;;;;5072400;28;20044;-83
2022/05/16 12:48:18;;;;;;;0.35;0.28;;;23.90;94.20;;;;;;5052880;28;20038;-87
2022/05/16 12:51:09;;;;;;;0.30;0.30;;;23.80;94.40;;;;;;5051902;28;20730;-84
2022/05/16 12:53:55;;;;;;;0.60;0.60;;;23.60;94.90;;;;;;5035437;28;20045;-87
2022/05/16 12:56:27;;;;;;;;;;;23.60;95.70;;;;;;5047902;28;20045;-83
2022/05/16 12:59:19;;;;;;;0.38;0.38;;;23.40;99.50;;;;;;5055227;28;19931;-83
2022/05/16 13:02:20;;;;;;;0.40;0.40;;;23.30;99.90;;;;;;5055453;28;20079;-83
2022/05/16 13:05:31;;;;;;;0.63;0.45;;;23.20;99.90;;;;;;5071462;28;20170;-86
2022/05/16 13:08:20;;;;;;;0.43;0.43;;;23.10;99.90;;;;;;4991144;28;20042;-83
2022/05/16 13:11:12;;;;;;;0.40;0.40;;;23.20;99.90;;;;;;5037051;28;20072;-84
2022/05/16 13:13:44;;;;;;;1.05;0.38;;;23.20;99.90;;;;;;5041023;28;20048;-89
2022/05/16 13:16:17;;;;;;;0.40;0.30;;;23.20;99.90;;;;;;5055498;28;20413;-88
2022/05/16 13:19:08;;;;;;;0.80;0.55;;;23.30;99.90;;;;;;5047758;28;20491;-88
2022/05/16 13:21:40;;;;;;;0.38;0.38;;;23.40;99.90;;;;;;5043181;28;20060;-83
2022/05/16 13:24:09;;;;;;;0.50;0.40;;;23.50;99.90;;;;;;5043621;28;20103;-88
2022/05/16 13:29:21;;;;;;;0.38;0.38;;;23.80;99.90;;;;;;5099438;28;20123;-87
2022/05/16 13:31:52;;;;;;;1.45;0.50;;;23.80;99.90;;;;;;5070995;28;20140;-83
2022/05/16 13:34:52;;;;;;;0.85;0.43;;;23.90;99.90;;;;;;5081080;28;20044;-88
2022/05/16 13:37:26;;;;;;;0.68;0.50;;;23.90;99.90;;;;;;5054749;28;20448;-88
2022/05/16 13:40:01;;;;;;;0.80;0.45;;;24.00;99.90;;;;;;5068412;28;20044;-88
2022/05/16 13:42:32;;;;;;;0.90;0.50;;;24.00;99.90;;;;;;5069210;28;20025;-87
2022/05/16 13:44:59;;;;;;;0.60;0.52;;;24.00;99.90;;;;;;5086443;28;20052;-83
2022/05/16 13:47:29;;;;;;;0.68;0.45;;;23.90;99.90;;;;;;5074688;28;20106;-87
2022/05/16 13:49:56;;;;;;;0.73;0.57;;;23.90;99.90;;;;;;5063430;28;20041;-83
2022/05/16 13:52:27;;;;;;;0.65;0.50;;;23.90;99.90;;;;;;5061423;28;20037;-83
2022/05/16 13:54:59;;;;;;;0.63;0.47;;;23.90;99.90;;;;;;5064366;28;20040;-83
2022/05/16 13:57:27;;;;;;;0.40;0.40;;;23.90;99.90;;;;;;5071281;28;20051;-87
2022/05/16 14:00:25;;;;;;;0.90;0.40;;;23.80;99.90;;;;;;5036789;28;20101;-84